Time;durP1;ratioP1;P1;durP2;ratioP2;P2;SDS_P1;SDS_P2;PMS_P1;PMS_P2;Temp;Humidity;BMP_temperature;BMP_pressure;BME280_temperature;BME280_humidity;BME280_pressure;Samples;Min_cycle;Max_cycle;Signal;HPM_P1;HPM_P2
2023/03/25 00:00:17;;;;;;;0.30;0.30;;;12.40;99.90;;;12.52;nan;99864.56;5005734;28;20739;-66
2023/03/25 00:02:48;;;;;;;0.40;0.40;;;12.30;99.90;;;12.48;nan;99871.06;4991988;28;20622;-67
2023/03/25 00:05:19;;;;;;;0.60;0.60;;;12.20;99.90;;;12.44;nan;99860.84;4991379;28;20654;-67
2023/03/25 00:07:50;;;;;;;2.50;0.50;;;12.20;99.90;;;12.34;nan;99873.13;4992353;28;21164;-67
2023/03/25 00:10:18;;;;;;;0.30;0.30;;;12.20;99.90;;;12.32;nan;99872.44;4992409;28;20661;-66
2023/03/25 00:12:45;;;;;;;0.30;0.30;;;12.10;99.90;;;12.27;nan;99874.66;4992618;28;20622;-67
2023/03/25 00:15:15;;;;;;;0.67;0.50;;;12.10;99.90;;;12.23;nan;99878.50;4979854;28;20634;-67
2023/03/25 00:17:42;;;;;;;0.40;0.30;;;12.00;99.90;;;12.22;nan;99874.22;4991829;28;20598;-68
2023/03/25 00:20:11;;;;;;;0.87;0.50;;;12.00;99.90;;;12.16;nan;99869.56;4990980;28;20668;-69
2023/03/25 00:22:40;;;;;;;1.17;0.60;;;12.00;99.90;;;12.10;nan;99869.28;4992493;28;21013;-67
2023/03/25 00:25:17;;;;;;;1.17;0.60;;;11.90;99.90;;;12.07;nan;99869.59;4991501;28;20669;-67
2023/03/25 00:27:49;;;;;;;0.40;0.40;;;11.90;99.90;;;12.07;nan;99870.41;4984439;28;20691;-67
2023/03/25 00:30:18;;;;;;;0.40;0.40;;;11.90;99.90;;;12.02;nan;99882.22;4991838;28;20661;-69
2023/03/25 00:32:48;;;;;;;1.90;0.70;;;11.90;99.90;;;12.01;nan;99877.97;4991220;28;20648;-67
2023/03/25 00:35:18;;;;;;;0.60;0.40;;;11.80;99.90;;;12.02;nan;99870.00;4991851;28;20626;-68
2023/03/25 00:37:58;;;;;;;1.33;0.57;;;11.80;99.90;;;12.01;nan;99881.41;4987231;28;20650;-67
2023/03/25 00:40:33;;;;;;;0.80;0.50;;;11.80;99.90;;;11.93;nan;99875.19;4985305;28;20658;-66
2023/03/25 00:43:02;;;;;;;1.63;0.50;;;11.80;99.90;;;11.91;nan;99880.56;4989096;28;20626;-71
2023/03/25 00:45:30;;;;;;;0.57;0.57;;;11.70;99.90;;;11.89;nan;99872.03;4985828;28;20692;-71
2023/03/25 00:47:57;;;;;;;0.40;0.40;;;11.70;99.90;;;11.87;nan;99880.97;4987423;28;21105;-67
2023/03/25 00:50:25;;;;;;;1.27;0.40;;;11.70;99.90;;;11.85;nan;99883.75;4985301;28;20662;-67
2023/03/25 00:52:55;;;;;;;1.07;0.60;;;11.70;99.90;;;11.81;nan;99881.53;4989746;28;20626;-68
2023/03/25 00:55:22;;;;;;;1.23;0.50;;;11.60;99.90;;;11.78;nan;99880.00;4990226;28;21399;-66
2023/03/25 00:57:49;;;;;;;0.60;0.60;;;11.60;99.90;;;11.78;nan;99890.47;4990846;28;21226;-68
2023/03/25 01:00:17;;;;;;;1.47;0.70;;;11.60;99.90;;;11.77;nan;99877.53;4992008;28;20637;-66
2023/03/25 01:02:44;;;;;;;0.53;0.50;;;11.60;99.90;;;11.78;nan;99871.34;4989367;28;20638;-67
2023/03/25 01:05:11;;;;;;;3.13;0.70;;;11.60;99.90;;;11.83;nan;99864.75;4990075;28;20732;-66
2023/03/25 01:07:40;;;;;;;0.70;0.53;;;11.70;99.90;;;11.82;nan;99863.09;4989723;28;20631;-66
2023/03/25 01:10:08;;;;;;;0.40;0.40;;;11.70;99.90;;;11.85;nan;99860.22;4989323;28;20708;-67
2023/03/25 01:12:35;;;;;;;1.47;0.73;;;11.70;99.90;;;11.83;nan;99869.16;4991393;28;20630;-67
2023/03/25 01:15:02;;;;;;;0.73;0.73;;;11.60;99.90;;;11.88;nan;99869.56;4990557;28;20700;-68
2023/03/25 01:17:30;;;;;;;0.53;0.50;;;11.70;99.90;;;11.87;nan;99876.59;4984590;28;20642;-68
2023/03/25 01:19:57;;;;;;;0.60;0.60;;;11.70;99.90;;;11.89;nan;99871.22;5046864;23;20693;-67
2023/03/25 01:22:23;;;;;;;4.63;0.60;;;11.70;99.90;;;11.83;nan;99864.75;4992998;28;20699;-69
2023/03/25 01:24:50;;;;;;;0.93;0.50;;;11.70;99.90;;;11.78;nan;99859.09;5010145;28;21230;-66
2023/03/25 01:27:17;;;;;;;0.53;0.53;;;11.60;99.90;;;11.78;nan;99864.31;4993691;28;20621;-69
2023/03/25 01:29:44;;;;;;;1.07;0.73;;;11.60;99.90;;;11.75;nan;99875.06;5005534;28;20657;-67
2023/03/25 01:32:11;;;;;;;0.43;0.40;;;11.60;99.90;;;11.75;nan;99874.25;5011373;28;20691;-68
2023/03/25 01:34:38;;;;;;;1.27;0.60;;;11.60;99.90;;;11.74;nan;99883.84;5009306;28;20637;-68
2023/03/25 01:37:06;;;;;;;0.70;0.70;;;11.60;99.90;;;11.75;nan;99882.06;5011390;28;20629;-69
2023/03/25 01:39:33;;;;;;;0.93;0.40;;;11.60;99.90;;;11.71;nan;99894.59;5001112;28;20813;-68
2023/03/25 01:42:00;;;;;;;0.90;0.53;;;11.60;99.90;;;11.60;nan;99907.75;5010565;28;20664;-66
2023/03/25 01:44:28;;;;;;;0.40;0.40;;;11.50;99.90;;;11.48;nan;99927.06;4991924;28;20670;-68
2023/03/25 01:46:58;;;;;;;1.43;0.70;;;11.40;99.90;;;11.36;nan;99909.88;5002577;28;21261;-68
2023/03/25 01:49:43;;;;;;;0.47;0.40;;;11.30;99.90;;;11.19;nan;99902.66;5025325;28;21270;-68
2023/03/25 01:52:23;;;;;;;0.40;0.40;;;11.10;99.90;;;10.98;nan;99881.00;5004206;28;21224;-68
2023/03/25 01:54:52;;;;;;;0.40;0.40;;;10.90;99.90;;;10.79;nan;99872.13;5002170;28;20992;-68
2023/03/25 01:57:22;;;;;;;1.17;0.50;;;10.70;99.90;;;10.67;nan;99873.16;4989026;28;20626;-68
2023/03/25 01:59:53;;;;;;;0.37;0.37;;;10.60;99.90;;;10.65;nan;99858.56;5019593;28;20660;-66
2023/03/25 02:02:20;;;;;;;0.70;0.50;;;10.50;99.90;;;10.64;nan;99849.94;5010212;28;20633;-67
2023/03/25 02:05:16;;;;;;;0.30;0.30;;;10.50;99.90;;;10.63;nan;99824.78;5013046;28;20661;-68
2023/03/25 02:07:46;;;;;;;0.30;0.30;;;10.50;99.90;;;10.63;nan;99827.41;5007706;28;20638;-68
2023/03/25 02:10:15;;;;;;;0.30;0.30;;;10.50;99.90;;;10.59;nan;99831.22;5008040;28;21286;-67
2023/03/25 02:12:44;;;;;;;1.03;0.40;;;10.50;99.90;;;10.56;nan;99836.69;4976850;28;20633;-68
2023/03/25 02:15:13;;;;;;;0.50;0.40;;;10.40;99.90;;;10.54;nan;99836.00;4993339;28;20680;-68
2023/03/25 02:18:15;;;;;;;0.33;0.33;;;10.40;99.90;;;10.50;nan;99824.19;5003854;28;20752;-67
2023/03/25 02:21:25;;;;;;;0.30;0.30;;;10.40;99.90;;;10.45;nan;99831.56;4989045;28;20684;-68
2023/03/25 02:24:41;;;;;;;0.30;0.30;;;10.30;99.90;;;10.36;nan;99828.91;5010218;28;20622;-70
2023/03/25 02:27:26;;;;;;;0.90;0.40;;;10.30;99.90;;;10.27;nan;99834.88;5007131;28;20646;-69
2023/03/25 02:30:31;;;;;;;0.40;0.40;;;10.20;99.90;;;10.16;nan;99848.78;5024397;28;20649;-68
2023/03/25 02:33:39;;;;;;;0.30;0.30;;;10.10;99.90;;;10.10;nan;99850.13;5007396;28;20644;-68
2023/03/25 02:36:43;;;;;;;0.30;0.30;;;10.00;99.90;;;10.01;nan;99830.00;4963365;28;20629;-68
2023/03/25 02:39:51;;;;;;;0.57;0.40;;;10.00;99.90;;;10.02;nan;99825.63;5012649;28;20632;-68
2023/03/25 02:42:53;;;;;;;0.30;0.30;;;9.90;99.90;;;10.07;nan;99852.16;5013304;28;20717;-68
2023/03/25 02:45:35;;;;;;;1.33;0.50;;;10.00;99.90;;;10.09;nan;99852.84;5012471;28;21241;-68
2023/03/25 02:48:15;;;;;;;0.43;0.43;;;10.00;99.90;;;10.13;nan;99864.72;5017622;28;20618;-68
2023/03/25 02:50:50;;;;;;;0.30;0.30;;;10.00;99.90;;;10.14;nan;99861.13;4991768;28;20653;-68
2023/03/25 02:53:32;;;;;;;0.67;0.40;;;10.00;99.90;;;10.17;nan;99870.47;5022554;28;21009;-68
2023/03/25 02:56:09;;;;;;;0.40;0.40;;;10.00;99.90;;;10.16;nan;99879.28;5009213;28;20630;-68
2023/03/25 02:58:39;;;;;;;1.17;0.50;;;10.00;99.90;;;10.19;nan;99866.81;5000809;28;20633;-68
2023/03/25 03:01:08;;;;;;;0.93;0.50;;;10.00;99.90;;;10.22;nan;99869.16;5011417;28;20657;-68
2023/03/25 03:03:35;;;;;;;0.43;0.40;;;10.00;99.90;;;10.26;nan;99870.56;5011937;28;20637;-67
2023/03/25 03:06:05;;;;;;;1.03;0.60;;;10.10;99.90;;;10.28;nan;99873.88;5009360;28;20676;-68
2023/03/25 03:08:50;;;;;;;0.20;0.20;;;10.10;99.90;;;10.33;nan;99895.16;5006072;28;21007;-68
2023/03/25 03:11:39;;;;;;;0.60;0.60;;;10.20;99.90;;;10.34;nan;99881.19;4992214;28;20942;-68
2023/03/25 03:14:29;;;;;;;0.40;0.40;;;10.20;99.90;;;10.37;nan;99885.31;4975509;28;20623;-68
2023/03/25 03:17:17;;;;;;;2.83;0.50;;;10.20;99.90;;;10.39;nan;99886.84;5002370;28;21252;-69
2023/03/25 03:19:59;;;;;;;0.60;0.60;;;10.20;99.90;;;10.36;nan;99879.28;4992615;28;20654;-70
2023/03/25 03:22:39;;;;;;;0.60;0.60;;;10.20;99.90;;;10.42;nan;99883.16;4996261;28;20633;-69
2023/03/25 03:25:20;;;;;;;0.77;0.53;;;10.30;99.90;;;10.44;nan;99881.22;5009698;28;20777;-69
2023/03/25 03:28:13;;;;;;;1.47;0.93;;;10.30;99.90;;;10.44;nan;99878.63;4990296;28;20626;-67
2023/03/25 03:30:50;;;;;;;0.67;0.67;;;10.30;99.90;;;10.45;nan;99880.28;4992140;28;21243;-70
2023/03/25 03:33:31;;;;;;;3.10;0.60;;;10.30;99.90;;;10.46;nan;99879.31;5009864;28;20641;-68
2023/03/25 03:36:03;;;;;;;2.10;0.70;;;10.30;99.90;;;10.45;nan;99862.88;5005833;28;20630;-69
2023/03/25 03:38:38;;;;;;;0.90;0.50;;;10.30;99.90;;;10.45;nan;99873.31;5018027;28;20630;-68
2023/03/25 03:41:10;;;;;;;0.40;0.40;;;10.30;99.90;;;10.43;nan;99872.63;5009866;28;21213;-68
2023/03/25 03:43:53;;;;;;;1.10;0.83;;;10.30;99.90;;;10.39;nan;99881.63;5010617;28;20636;-69
2023/03/25 03:46:30;;;;;;;2.53;0.90;;;10.30;99.90;;;10.36;nan;99874.06;4975351;28;20747;-69
2023/03/25 03:49:00;;;;;;;0.53;0.53;;;10.20;99.90;;;10.30;nan;99866.75;4974865;28;20991;-69
2023/03/25 03:51:37;;;;;;;0.60;0.50;;;10.20;99.90;;;10.33;nan;99865.69;4990489;28;20610;-68
2023/03/25 03:54:12;;;;;;;0.50;0.50;;;10.20;99.90;;;10.33;nan;99863.88;5008693;28;20699;-68
2023/03/25 03:56:52;;;;;;;0.80;0.63;;;10.20;99.90;;;10.33;nan;99861.25;5009568;28;20633;-68
2023/03/25 03:59:54;;;;;;;0.30;0.30;;;10.20;99.90;;;10.34;nan;99862.09;5009867;28;20649;-68
2023/03/25 04:02:37;;;;;;;0.50;0.50;;;10.20;99.90;;;10.33;nan;99855.25;5006512;28;21170;-67
2023/03/25 04:05:11;;;;;;;0.70;0.50;;;10.20;99.90;;;10.28;nan;99863.44;5023062;28;20672;-68
2023/03/25 04:07:44;;;;;;;0.57;0.57;;;10.10;99.90;;;10.22;nan;99879.59;5007851;28;20683;-67
2023/03/25 04:10:20;;;;;;;1.97;0.70;;;10.00;99.90;;;10.21;nan;99877.09;5002156;28;20653;-69
2023/03/25 04:12:51;;;;;;;0.50;0.50;;;10.10;99.90;;;10.24;nan;99884.69;5009541;28;21001;-69
2023/03/25 04:15:19;;;;;;;1.73;0.70;;;10.10;99.90;;;10.27;nan;99885.25;4978303;28;21073;-68
2023/03/25 04:17:46;;;;;;;0.50;0.50;;;10.10;99.90;;;10.28;nan;99889.53;5006124;28;20652;-68
2023/03/25 04:20:22;;;;;;;0.40;0.40;;;10.20;99.90;;;10.31;nan;99899.69;5004995;28;20673;-69
2023/03/25 04:22:51;;;;;;;0.67;0.60;;;10.20;99.90;;;10.37;nan;99903.59;5020316;28;20641;-66
2023/03/25 04:25:20;;;;;;;0.50;0.40;;;10.20;99.90;;;10.40;nan;99906.75;4993067;28;21058;-67
2023/03/25 04:27:47;;;;;;;2.83;0.60;;;10.20;99.90;;;10.43;nan;99916.09;5008308;28;20621;-68
2023/03/25 04:30:18;;;;;;;0.90;0.70;;;10.30;99.90;;;10.43;nan;99903.91;5010426;28;20653;-67
2023/03/25 04:32:46;;;;;;;1.27;0.60;;;10.30;99.90;;;10.47;nan;99902.69;5009053;28;21216;-67
2023/03/25 04:35:15;;;;;;;0.60;0.60;;;10.30;99.90;;;10.52;nan;99902.31;5009245;28;21254;-66
2023/03/25 04:37:47;;;;;;;6.13;0.60;;;10.40;99.90;;;10.51;nan;99900.66;4995731;28;20630;-67
2023/03/25 04:40:17;;;;;;;0.83;0.50;;;10.40;99.90;;;10.53;nan;99909.16;5005856;28;20658;-67
2023/03/25 04:42:47;;;;;;;0.60;0.60;;;10.40;99.90;;;10.54;nan;99905.63;4991258;28;20629;-66
2023/03/25 04:45:15;;;;;;;0.60;0.60;;;10.40;99.90;;;10.54;nan;99905.63;5000436;28;20665;-68
2023/03/25 04:47:48;;;;;;;0.93;0.60;;;10.40;99.90;;;10.56;nan;99908.94;5005269;28;20645;-67
2023/03/25 04:50:28;;;;;;;4.63;1.00;;;10.40;99.90;;;10.55;nan;99902.88;5009737;28;21249;-69
2023/03/25 04:53:02;;;;;;;0.60;0.57;;;10.40;99.90;;;10.58;nan;99902.63;5011293;28;20617;-67
2023/03/25 04:55:29;;;;;;;1.27;0.80;;;10.50;99.90;;;10.55;nan;99912.47;5026640;28;20629;-69
2023/03/25 04:57:56;;;;;;;1.83;0.60;;;10.40;99.90;;;10.57;nan;99906.19;5010862;28;20636;-69
2023/03/25 05:00:24;;;;;;;0.50;0.50;;;10.40;99.90;;;10.59;nan;99896.44;4992174;28;20654;-68
2023/03/25 05:02:54;;;;;;;2.47;0.93;;;10.50;99.90;;;10.59;nan;99914.72;4998775;28;21284;-68
2023/03/25 05:05:23;;;;;;;1.60;0.73;;;10.50;99.90;;;10.60;nan;99905.09;5027425;28;20679;-68
2023/03/25 05:07:56;;;;;;;0.50;0.50;;;10.40;99.90;;;10.55;nan;99905.47;5011375;28;21226;-68
2023/03/25 05:10:28;;;;;;;0.50;0.50;;;10.50;99.90;;;10.60;nan;99905.94;5011045;28;20657;-70
2023/03/25 05:13:05;;;;;;;0.80;0.80;;;10.50;99.90;;;10.56;nan;99909.72;5000451;28;20634;-68
2023/03/25 05:15:38;;;;;;;5.50;0.67;;;10.50;99.90;;;10.57;nan;99910.56;4997836;28;20717;-69
2023/03/25 05:18:14;;;;;;;0.63;0.40;;;10.40;99.90;;;10.53;nan;99909.16;5007550;28;20630;-67
2023/03/25 05:20:45;;;;;;;0.50;0.50;;;10.50;99.90;;;10.44;nan;99918.59;5025643;28;21257;-68
2023/03/25 05:23:20;;;;;;;1.73;0.50;;;10.40;99.90;;;10.40;nan;99917.19;5006973;28;20637;-68
2023/03/25 05:25:50;;;;;;;0.50;0.50;;;10.20;99.90;;;10.43;nan;99923.94;4992755;28;20657;-68
2023/03/25 05:28:18;;;;;;;0.70;0.70;;;10.20;99.90;;;10.46;nan;99919.28;5003226;28;20648;-68
2023/03/25 05:30:46;;;;;;;0.60;0.60;;;10.30;99.90;;;10.47;nan;99927.94;4992309;28;20654;-69
2023/03/25 05:33:16;;;;;;;1.10;0.87;;;10.30;99.90;;;10.46;nan;99929.72;4995603;28;20645;-68
2023/03/25 05:35:44;;;;;;;1.23;0.60;;;10.30;99.90;;;10.50;nan;99925.91;4991137;28;20618;-68
2023/03/25 05:38:17;;;;;;;2.63;0.50;;;10.40;99.90;;;10.50;nan;99927.69;5010301;28;21133;-69
2023/03/25 05:40:45;;;;;;;1.07;0.60;;;10.40;99.90;;;10.47;nan;99935.75;5025667;28;20675;-68
2023/03/25 05:43:15;;;;;;;1.17;0.60;;;10.30;99.90;;;10.49;nan;99934.69;5014034;28;21279;-68
2023/03/25 05:45:44;;;;;;;0.63;0.60;;;10.30;99.90;;;10.51;nan;99935.38;4998014;28;20891;-69
2023/03/25 05:48:11;;;;;;;8.87;0.63;;;10.40;99.90;;;10.54;nan;99948.16;5013352;28;20651;-68
2023/03/25 05:50:41;;;;;;;2.77;0.60;;;10.40;99.90;;;10.62;nan;99944.94;4994669;28;20653;-69
2023/03/25 05:53:16;;;;;;;0.90;0.70;;;10.40;99.90;;;10.62;nan;99951.00;5009955;28;20637;-69
2023/03/25 05:55:43;;;;;;;0.70;0.70;;;10.50;99.90;;;10.64;nan;99951.69;4995325;28;20633;-70
2023/03/25 05:58:10;;;;;;;0.50;0.50;;;10.50;99.90;;;10.65;nan;99955.09;4993848;28;20638;-69
2023/03/25 06:00:37;;;;;;;0.93;0.93;;;10.50;99.90;;;10.71;nan;99962.44;4997459;28;20668;-67
2023/03/25 06:03:06;;;;;;;4.43;0.70;;;10.60;99.90;;;10.74;nan;99957.78;5014711;28;21061;-68
2023/03/25 06:05:34;;;;;;;0.57;0.57;;;10.60;99.90;;;10.76;nan;99966.31;5011227;28;20742;-68
2023/03/25 06:08:01;;;;;;;4.97;1.30;;;10.60;99.90;;;10.75;nan;99966.44;5009396;28;20633;-69
2023/03/25 06:10:28;;;;;;;0.63;0.43;;;10.60;99.90;;;10.80;nan;99974.69;5007575;28;21020;-68
2023/03/25 06:12:55;;;;;;;0.30;0.30;;;10.70;99.90;;;10.83;nan;99964.84;5011504;28;20683;-68
2023/03/25 06:15:27;;;;;;;3.80;1.30;;;10.70;99.90;;;10.84;nan;99970.88;5014304;28;20597;-68
2023/03/25 06:17:55;;;;;;;4.33;1.03;;;10.70;99.90;;;10.84;nan;99978.72;5011746;28;21217;-69
2023/03/25 06:20:22;;;;;;;2.03;0.80;;;10.70;99.90;;;10.85;nan;99978.59;5012706;28;20772;-69
2023/03/25 06:22:49;;;;;;;2.53;0.70;;;10.70;99.90;;;10.85;nan;99959.50;4993018;28;20618;-68
2023/03/25 06:25:19;;;;;;;1.70;0.80;;;10.70;99.90;;;10.85;nan;99970.78;4998679;28;20634;-69
2023/03/25 06:27:48;;;;;;;2.50;0.50;;;10.80;99.90;;;10.83;nan;99971.84;4996257;28;20649;-67
2023/03/25 06:30:20;;;;;;;3.30;0.90;;;10.70;99.90;;;10.87;nan;99974.09;5022178;28;20664;-69
2023/03/25 06:32:49;;;;;;;4.87;1.37;;;10.80;99.90;;;10.89;nan;99993.03;5009968;28;20628;-69
2023/03/25 06:35:18;;;;;;;2.57;0.80;;;10.70;99.90;;;10.94;nan;99993.47;5012388;28;20621;-69
2023/03/25 06:37:48;;;;;;;1.03;1.03;;;10.80;99.90;;;10.99;nan;99989.69;5007472;28;21168;-69
2023/03/25 06:40:15;;;;;;;1.30;1.20;;;10.80;99.90;;;11.05;nan;99987.38;5025952;28;20657;-67
2023/03/25 06:42:42;;;;;;;1.57;0.57;;;10.90;99.90;;;11.09;nan;99978.34;5011438;28;20625;-68
2023/03/25 06:45:09;;;;;;;0.97;0.80;;;11.00;99.90;;;11.14;nan;99983.19;5009864;28;20635;-68
2023/03/25 06:47:36;;;;;;;1.43;1.07;;;11.00;99.90;;;11.20;nan;99969.59;5004774;28;20645;-69
2023/03/25 06:50:04;;;;;;;3.20;0.77;;;11.10;99.90;;;11.28;nan;99957.53;4998114;28;20668;-69
2023/03/25 06:52:31;;;;;;;1.20;0.80;;;11.10;99.90;;;11.42;nan;99964.19;5012701;28;20637;-68
2023/03/25 06:54:58;;;;;;;5.23;1.23;;;11.30;99.90;;;11.71;nan;99959.09;5012513;28;20678;-68
2023/03/25 06:57:25;;;;;;;3.00;0.87;;;11.50;99.90;;;12.62;nan;99957.81;5013183;28;20999;-68
2023/03/25 06:59:51;;;;;;;4.00;1.10;;;12.30;99.90;;;13.88;nan;99967.72;5008098;28;20661;-67
2023/03/25 07:02:18;;;;;;;3.97;0.83;;;13.50;99.90;;;15.15;nan;99953.25;5003721;28;20704;-69
2023/03/25 07:04:45;;;;;;;0.87;0.53;;;14.80;99.90;;;16.33;nan;99954.81;5009574;28;20617;-68
2023/03/25 07:07:12;;;;;;;4.70;0.97;;;16.00;99.90;;;17.44;nan;99958.53;5006462;28;21270;-69
2023/03/25 07:09:39;;;;;;;3.83;0.77;;;17.10;99.90;;;17.97;nan;99948.09;5010488;28;20665;-69
2023/03/25 07:12:07;;;;;;;1.10;0.80;;;17.90;99.60;;;18.25;nan;99956.31;5006677;28;20631;-65
2023/03/25 07:14:35;;;;;;;3.07;0.90;;;18.20;97.90;;;18.76;nan;99942.38;4992747;28;21005;-70
2023/03/25 07:17:03;;;;;;;2.00;1.00;;;18.70;97.30;;;18.94;nan;99948.16;5004385;28;20724;-69
2023/03/25 07:19:36;;;;;;;0.97;0.87;;;18.90;94.90;;;19.41;nan;99950.50;5013661;28;20657;-68
2023/03/25 07:22:03;;;;;;;2.10;0.90;;;19.40;93.80;;;19.76;nan;99954.22;4971737;28;20733;-68
2023/03/25 07:24:30;;;;;;;2.50;1.03;;;19.80;92.80;;;20.22;nan;99946.81;4983171;28;20635;-66
2023/03/25 07:26:57;;;;;;;1.33;1.00;;;20.20;91.60;;;20.44;nan;99937.84;4971404;28;20748;-69
2023/03/25 07:29:24;;;;;;;2.10;1.00;;;20.50;89.90;;;20.63;nan;99942.50;4972220;28;20623;-68
2023/03/25 07:31:51;;;;;;;2.70;0.97;;;20.70;87.90;;;20.64;nan;99931.72;4966236;28;20664;-70
2023/03/25 07:34:18;;;;;;;4.73;0.90;;;20.80;85.90;;;20.31;nan;99937.72;4964933;28;20701;-68
2023/03/25 07:36:45;;;;;;;2.20;0.87;;;20.50;86.40;;;19.88;nan;99942.13;4971954;28;20643;-68
2023/03/25 07:39:12;;;;;;;2.60;1.20;;;20.10;86.10;;;19.44;nan;99944.88;4959218;28;20640;-68
2023/03/25 07:41:39;;;;;;;1.90;0.93;;;19.70;87.30;;;18.98;nan;99932.75;4953873;28;20715;-66
2023/03/25 07:44:06;;;;;;;3.03;1.33;;;19.20;88.10;;;18.33;nan;99927.22;4953142;28;20639;-66
2023/03/25 07:46:33;;;;;;;1.27;0.90;;;18.60;90.20;;;18.43;nan;99939.19;4959144;28;21263;-66
2023/03/25 07:49:00;;;;;;;1.53;0.90;;;18.50;90.60;;;18.88;nan;99934.84;4972235;28;20627;-68
2023/03/25 07:51:27;;;;;;;4.03;1.30;;;19.00;90.20;;;18.73;nan;99923.44;4969805;28;20654;-66
2023/03/25 07:53:54;;;;;;;1.83;1.23;;;19.00;89.20;;;18.40;nan;99936.06;4952968;28;20619;-68
2023/03/25 07:56:21;;;;;;;1.47;0.90;;;18.70;90.00;;;17.98;nan;99939.16;4953321;29;20636;-68
2023/03/25 07:58:48;;;;;;;1.10;1.00;;;18.20;91.10;;;17.61;nan;99942.47;4953763;29;20682;-68
2023/03/25 08:01:15;;;;;;;1.43;1.07;;;17.90;91.30;;;16.87;nan;99927.03;4959553;28;20673;-68
2023/03/25 08:03:42;;;;;;;1.57;0.70;;;17.10;92.30;;;16.28;nan;99941.34;4968862;28;21229;-70
2023/03/25 08:06:09;;;;;;;6.23;1.27;;;16.40;93.20;;;15.95;nan;99938.81;4951951;28;21045;-67
2023/03/25 08:08:36;;;;;;;6.47;1.00;;;16.10;94.20;;;15.60;nan;99936.41;4952366;28;21186;-68
2023/03/25 08:11:04;;;;;;;3.97;0.80;;;15.70;95.10;;;15.35;nan;99930.19;4952849;28;20664;-66
2023/03/25 08:13:31;;;;;;;5.00;1.10;;;15.40;96.20;;;14.99;nan;99926.88;4954156;28;20633;-66
2023/03/25 08:15:58;;;;;;;1.60;0.90;;;15.10;97.40;;;14.86;nan;99928.28;4951920;28;20632;-67
2023/03/25 08:18:25;;;;;;;6.93;1.23;;;14.80;98.10;;;14.80;nan;99927.06;4962594;28;21004;-66
2023/03/25 08:20:52;;;;;;;3.00;1.13;;;14.80;98.90;;;14.58;nan;99919.72;4970724;28;20756;-67
2023/03/25 08:23:21;;;;;;;1.27;0.80;;;14.60;99.90;;;14.60;nan;99921.22;4972126;28;20694;-66
2023/03/25 08:25:49;;;;;;;6.60;1.17;;;14.60;99.90;;;15.16;nan;99928.59;4971312;28;20635;-66
2023/03/25 08:28:21;;;;;;;0.80;0.80;;;15.10;99.90;;;15.36;nan;99930.03;4958240;28;20686;-68
2023/03/25 08:30:53;;;;;;;3.03;1.00;;;15.40;99.90;;;15.30;nan;99928.03;4951431;28;21276;-68
2023/03/25 08:33:38;;;;;;;1.43;1.00;;;15.30;99.90;;;15.17;nan;99929.44;4967264;28;20635;-66
2023/03/25 08:36:08;;;;;;;2.80;1.10;;;15.10;99.90;;;15.37;nan;99925.59;4968126;28;20635;-66
2023/03/25 08:38:35;;;;;;;0.60;0.60;;;15.30;99.90;;;15.95;nan;99934.38;4959809;28;20639;-66
2023/03/25 08:41:03;;;;;;;4.53;1.20;;;15.80;99.90;;;16.14;nan;99928.00;4964926;28;21032;-64
2023/03/25 08:43:30;;;;;;;0.80;0.67;;;16.10;99.90;;;15.86;nan;99934.53;4971553;28;20623;-68
2023/03/25 08:45:57;;;;;;;1.77;1.00;;;15.90;99.60;;;15.63;nan;99930.84;4950272;28;20698;-71
2023/03/25 08:48:24;;;;;;;2.30;0.70;;;15.60;99.90;;;16.11;nan;99917.78;4965433;28;20643;-68
2023/03/25 08:50:52;;;;;;;1.00;0.70;;;16.00;99.90;;;16.68;nan;99927.38;4970368;28;20655;-69
2023/03/25 08:53:19;;;;;;;2.10;1.00;;;16.60;98.50;;;16.78;nan;99920.13;4963807;28;21228;-68
2023/03/25 08:55:46;;;;;;;0.60;0.60;;;16.80;96.70;;;16.56;nan;99931.34;4970560;28;20639;-68
2023/03/25 08:58:13;;;;;;;1.07;0.73;;;16.70;96.20;;;16.29;nan;99931.66;4964692;28;20643;-68
2023/03/25 09:00:40;;;;;;;1.80;0.80;;;16.40;97.10;;;16.19;nan;99929.16;4963450;28;20679;-68
2023/03/25 09:03:06;;;;;;;0.83;0.60;;;16.20;97.00;;;16.21;nan;99923.72;4969876;28;20635;-67
2023/03/25 09:05:39;;;;;;;0.70;0.67;;;16.20;97.50;;;16.26;nan;99926.69;4968835;28;20701;-68
2023/03/25 09:08:06;;;;;;;0.60;0.60;;;16.20;97.10;;;16.40;nan;99918.13;4950869;28;21081;-67
2023/03/25 09:10:33;;;;;;;1.53;0.70;;;16.30;96.90;;;16.16;nan;99920.78;4959780;28;20669;-67
2023/03/25 09:13:02;;;;;;;2.07;0.80;;;16.20;97.10;;;16.03;nan;99928.31;4962696;28;20643;-69
2023/03/25 09:15:29;;;;;;;0.60;0.60;;;16.00;97.40;;;15.73;nan;99929.72;4964041;28;21214;-67
2023/03/25 09:17:57;;;;;;;0.60;0.60;;;15.70;98.10;;;15.47;nan;99929.78;4961532;28;21204;-65
2023/03/25 09:20:24;;;;;;;2.23;0.90;;;15.40;98.20;;;14.98;nan;99932.28;4973961;28;20686;-67
2023/03/25 09:22:51;;;;;;;4.00;0.87;;;15.10;98.40;;;14.72;nan;99937.53;4965510;28;20639;-67
2023/03/25 09:25:18;;;;;;;3.47;0.80;;;14.70;99.30;;;14.41;nan;99945.00;4968747;28;20637;-66
2023/03/25 09:27:45;;;;;;;0.53;0.53;;;14.40;99.90;;;14.31;nan;99927.69;4970318;28;21218;-67
2023/03/25 09:30:12;;;;;;;1.43;0.60;;;14.20;99.90;;;14.31;nan;99927.69;4956559;28;21189;-68
2023/03/25 09:32:39;;;;;;;0.50;0.50;;;14.20;99.90;;;14.29;nan;99927.03;4952973;28;20635;-67
2023/03/25 09:35:07;;;;;;;1.97;0.70;;;14.20;99.90;;;14.23;nan;99919.69;4955530;28;20624;-67
2023/03/25 09:37:34;;;;;;;1.37;0.70;;;14.10;99.90;;;14.22;nan;99923.31;4953937;29;20614;-69
2023/03/25 09:40:01;;;;;;;2.57;0.90;;;14.10;99.90;;;14.05;nan;99908.41;4954336;28;21100;-67
2023/03/25 09:43:02;;;;;;;0.80;0.80;;;13.90;99.90;;;13.92;nan;99922.72;4969798;28;20627;-70
2023/03/25 09:45:41;;;;;;;0.60;0.60;;;13.80;99.90;;;13.90;nan;99922.03;4971492;28;20623;-67
2023/03/25 09:48:32;;;;;;;1.77;1.10;;;13.80;99.90;;;14.02;nan;99923.47;4973129;28;20679;-67
2023/03/25 09:51:17;;;;;;;0.70;0.60;;;13.80;99.90;;;14.21;nan;99934.78;4973024;28;20662;-67
2023/03/25 09:54:01;;;;;;;1.17;0.63;;;14.00;99.90;;;14.43;nan;99913.34;4973533;28;20661;-64
2023/03/25 09:56:34;;;;;;;1.73;0.93;;;14.20;99.90;;;14.60;nan;99925.63;4971049;28;20743;-68
2023/03/25 09:59:14;;;;;;;0.60;0.60;;;14.40;99.90;;;14.73;nan;99915.56;4954685;28;20637;-68
2023/03/25 10:02:03;;;;;;;1.33;0.73;;;14.50;99.90;;;14.98;nan;99927.03;4955408;28;21095;-67
2023/03/25 10:04:53;;;;;;;1.20;0.67;;;14.80;99.90;;;15.56;nan;99929.81;4972810;28;20689;-67
2023/03/25 10:07:34;;;;;;;1.00;0.57;;;15.20;99.90;;;16.06;nan;99946.38;4974299;28;20643;-68
2023/03/25 10:10:25;;;;;;;1.10;0.80;;;15.90;99.20;;;16.07;nan;99927.00;4969764;28;20721;-68
2023/03/25 10:13:11;;;;;;;0.63;0.50;;;16.00;98.90;;;15.85;nan;99941.59;4974146;28;20642;-67
2023/03/25 10:16:21;;;;;;;1.77;0.70;;;15.70;98.40;;;16.13;nan;99945.59;4975547;28;20975;-67
2023/03/25 10:19:14;;;;;;;0.73;0.57;;;15.90;98.30;;;17.76;nan;99948.66;4961436;28;20636;-67
2023/03/25 10:21:57;;;;;;;0.40;0.30;;;17.30;96.50;;;20.48;nan;99955.00;4965432;28;20674;-70
2023/03/25 10:24:49;;;;;;;0.90;0.80;;;19.90;92.40;;;22.15;nan;99953.78;4958531;28;20640;-68
2023/03/25 10:27:40;;;;;;;1.60;0.60;;;22.00;83.70;;;21.97;nan;99949.06;4953570;28;21042;-68
2023/03/25 10:30:25;;;;;;;2.97;0.60;;;22.10;78.90;;;21.09;nan;99943.69;4962280;28;20654;-72
2023/03/25 10:33:03;;;;;;;1.33;0.90;;;21.40;78.20;;;20.09;nan;99934.22;4968543;28;20642;-68
2023/03/25 10:35:42;;;;;;;0.50;0.50;;;20.30;80.70;;;18.95;nan;99936.56;4937129;29;20659;-68
2023/03/25 10:38:19;;;;;;;1.10;0.90;;;19.10;83.20;;;18.12;nan;99941.03;4953574;28;20635;-68
2023/03/25 10:40:50;;;;;;;0.50;0.50;;;18.30;86.30;;;17.39;nan;99931.81;4955211;28;20654;-67
2023/03/25 10:43:20;;;;;;;0.63;0.63;;;17.50;88.40;;;16.68;nan;99918.66;4953817;28;20636;-67
2023/03/25 10:45:50;;;;;;;0.70;0.70;;;16.80;90.50;;;16.04;nan;99932.56;4952763;28;20643;-68
2023/03/25 10:48:26;;;;;;;2.30;0.50;;;16.10;91.00;;;15.52;nan;99939.84;4957186;28;20674;-70
2023/03/25 10:51:27;;;;;;;0.50;0.50;;;15.50;93.10;;;14.89;nan;99951.59;4973020;28;20643;-68
2023/03/25 10:53:54;;;;;;;0.50;0.50;;;14.90;97.30;;;14.26;nan;99964.84;4964609;28;20650;-67
2023/03/25 10:56:28;;;;;;;1.13;0.43;;;14.30;99.90;;;13.77;nan;99981.03;4953597;29;20624;-67